Time;durP1;ratioP1;P1;durP2;ratioP2;P2;SDS_P1;SDS_P2;PMS_P1;PMS_P2;Temp;Humidity;BMP_temperature;BMP_pressure;BME280_temperature;BME280_humidity;BME280_pressure;Samples;Min_cycle;Max_cycle;Signal;HPM_P1;HPM_P2
2022/05/11 00:00:36;;;;;;;4.43;1.73;;;16.10;99.90;;;;;;4978836;28;20029;-85
2022/05/11 00:03:02;;;;;;;3.92;1.13;;;16.10;99.90;;;;;;4978330;28;20042;-85
2022/05/11 00:05:28;;;;;;;4.63;1.70;;;16.00;99.90;;;;;;4976330;28;20038;-86
2022/05/11 00:07:55;;;;;;;2.75;1.35;;;16.00;99.90;;;;;;4978575;28;20034;-86
2022/05/11 00:10:20;;;;;;;6.00;1.70;;;16.00;99.90;;;;;;4979319;28;20470;-86
2022/05/11 00:12:47;;;;;;;6.80;1.95;;;16.00;99.90;;;;;;4971348;28;20038;-86
2022/05/11 00:15:15;;;;;;;5.38;1.42;;;15.90;99.90;;;;;;4975574;28;20026;-86
2022/05/11 00:17:41;;;;;;;6.03;1.77;;;15.90;99.90;;;;;;4962758;28;20078;-85
2022/05/11 00:20:09;;;;;;;5.57;1.90;;;15.90;99.90;;;;;;4977469;28;20034;-85
2022/05/11 00:22:35;;;;;;;5.93;2.03;;;15.90;99.90;;;;;;4974987;28;20078;-86
2022/05/11 00:25:01;;;;;;;3.50;1.88;;;15.90;99.90;;;;;;4967885;28;20069;-85
2022/05/11 00:27:27;;;;;;;7.47;2.28;;;15.90;99.90;;;;;;4977515;28;20085;-85
2022/05/11 00:29:52;;;;;;;6.88;2.05;;;15.90;99.90;;;;;;4978015;28;20030;-85
2022/05/11 00:32:18;;;;;;;6.10;2.05;;;15.90;99.90;;;;;;4974163;28;20029;-85
2022/05/11 00:34:44;;;;;;;4.25;2.20;;;15.90;99.90;;;;;;4968195;28;20129;-85
2022/05/11 00:37:10;;;;;;;9.18;2.47;;;15.90;99.90;;;;;;4970374;28;20185;-85
2022/05/11 00:39:35;;;;;;;4.82;2.00;;;15.90;99.90;;;;;;4977992;28;20026;-86
2022/05/11 00:42:05;;;;;;;3.72;2.00;;;15.90;99.90;;;;;;4978173;28;20023;-86
2022/05/11 00:44:31;;;;;;;6.63;2.42;;;15.90;99.90;;;;;;4974152;28;20030;-86
2022/05/11 00:47:05;;;;;;;6.53;2.83;;;15.90;99.90;;;;;;4970064;28;20026;-86
2022/05/11 00:49:38;;;;;;;10.95;2.47;;;15.90;99.90;;;;;;4969368;28;20143;-87
2022/05/11 00:52:20;;;;;;;5.75;1.95;;;15.90;99.90;;;;;;4982370;28;20550;-86
2022/05/11 00:54:54;;;;;;;5.00;1.67;;;15.90;99.90;;;;;;4988810;28;20036;-87
2022/05/11 00:57:25;;;;;;;9.45;2.10;;;15.90;99.90;;;;;;4977667;28;20065;-87
2022/05/11 00:59:52;;;;;;;4.70;1.70;;;15.80;99.90;;;;;;4977817;28;20031;-85
2022/05/11 01:02:21;;;;;;;4.63;1.60;;;15.80;99.90;;;;;;4978143;28;20037;-86
2022/05/11 01:04:47;;;;;;;5.88;2.28;;;15.90;99.90;;;;;;4977123;28;20053;-86
2022/05/11 01:07:14;;;;;;;5.38;1.88;;;15.80;99.90;;;;;;4988284;28;20035;-85
2022/05/11 01:09:40;;;;;;;7.30;2.35;;;15.80;99.90;;;;;;4977704;28;20545;-86
2022/05/11 01:12:12;;;;;;;7.90;2.58;;;15.80;99.90;;;;;;4972439;28;20015;-86
2022/05/11 01:14:41;;;;;;;6.50;2.22;;;15.80;99.90;;;;;;4963188;28;20030;-86
2022/05/11 01:17:07;;;;;;;5.57;2.35;;;15.90;99.90;;;;;;4992384;28;20495;-86
2022/05/11 01:19:38;;;;;;;4.75;2.28;;;15.90;99.90;;;;;;4973454;28;20046;-86
2022/05/11 01:22:14;;;;;;;6.65;2.40;;;15.90;99.90;;;;;;4973219;28;20100;-86
2022/05/11 01:24:42;;;;;;;7.85;1.92;;;15.90;99.90;;;;;;4979592;28;20114;-86
2022/05/11 01:27:27;;;;;;;6.55;2.15;;;15.90;99.90;;;;;;4974447;28;20125;-86
2022/05/11 01:29:54;;;;;;;4.78;2.33;;;15.90;99.90;;;;;;4974083;28;20090;-86
2022/05/11 01:32:21;;;;;;;6.60;2.72;;;15.80;99.90;;;;;;4966013;28;20030;-86
2022/05/11 01:34:50;;;;;;;10.25;2.58;;;15.80;99.90;;;;;;4994862;28;20467;-86
2022/05/11 01:37:16;;;;;;;4.03;1.95;;;15.80;99.90;;;;;;4962974;28;20086;-86
2022/05/11 01:39:44;;;;;;;4.75;2.28;;;15.80;99.90;;;;;;4958187;28;20035;-86
2022/05/11 01:42:11;;;;;;;7.28;2.63;;;15.80;99.90;;;;;;4985652;28;20018;-86
2022/05/11 01:44:36;;;;;;;4.32;2.40;;;15.80;99.90;;;;;;4965732;28;20118;-85
2022/05/11 01:47:02;;;;;;;4.25;2.33;;;15.70;99.90;;;;;;4976724;28;20456;-86
2022/05/11 01:49:28;;;;;;;4.65;2.55;;;15.80;99.90;;;;;;4976876;28;20494;-86
2022/05/11 01:51:54;;;;;;;6.55;2.53;;;15.70;99.90;;;;;;4972445;28;20062;-86
2022/05/11 01:54:20;;;;;;;6.53;3.22;;;15.70;99.90;;;;;;4965690;28;20113;-86
2022/05/11 01:56:46;;;;;;;10.80;3.22;;;15.70;99.90;;;;;;4971106;28;20129;-86
2022/05/11 01:59:11;;;;;;;5.20;2.42;;;15.70;99.90;;;;;;4977064;28;20039;-86
2022/05/11 02:01:40;;;;;;;9.68;3.08;;;15.70;99.90;;;;;;4974890;28;20371;-86
2022/05/11 02:07:49;;;;;;;4.95;2.83;;;15.70;99.90;;;;;;4993391;28;20117;-86
2022/05/11 02:09:38;;;;;;;4.70;2.53;;;15.60;99.90;;;;;;4994863;28;20536;-86
2022/05/11 02:12:04;;;;;;;4.82;3.08;;;15.60;99.90;;;;;;4976237;28;20109;-87
2022/05/11 02:14:29;;;;;;;5.85;3.33;;;15.60;99.90;;;;;;4975942;28;20057;-85
2022/05/11 02:16:55;;;;;;;5.95;3.20;;;15.60;99.90;;;;;;4965996;28;20030;-87
2022/05/11 02:19:21;;;;;;;8.15;3.78;;;15.50;99.90;;;;;;4977116;28;20507;-86
2022/05/11 02:21:46;;;;;;;5.82;3.65;;;15.60;99.90;;;;;;4971334;28;20022;-86
2022/05/11 02:24:12;;;;;;;7.18;3.60;;;15.50;99.90;;;;;;4976497;28;20078;-86
2022/05/11 02:26:38;;;;;;;7.00;3.60;;;15.60;99.90;;;;;;4969926;28;20113;-87
2022/05/11 02:29:03;;;;;;;7.88;3.95;;;15.50;99.90;;;;;;4975962;28;20038;-86
2022/05/11 02:31:29;;;;;;;9.82;4.78;;;15.50;99.90;;;;;;4975982;28;20061;-86
2022/05/11 02:33:54;;;;;;;5.60;3.70;;;15.50;99.90;;;;;;4970631;28;20029;-87
2022/05/11 02:36:20;;;;;;;8.50;3.60;;;15.50;99.90;;;;;;4963515;28;20034;-86
2022/05/11 02:38:46;;;;;;;8.93;3.47;;;15.50;99.90;;;;;;4975833;28;20069;-86
2022/05/11 02:41:11;;;;;;;7.78;3.13;;;15.50;99.90;;;;;;4973227;28;20023;-85
2022/05/11 02:43:37;;;;;;;4.68;3.00;;;15.50;99.90;;;;;;4976476;28;20076;-86
2022/05/11 02:46:03;;;;;;;11.43;3.45;;;15.50;99.90;;;;;;4971434;28;20029;-85
2022/05/11 02:48:31;;;;;;;5.95;2.58;;;15.50;99.90;;;;;;4972104;28;20108;-86
2022/05/11 02:50:58;;;;;;;6.10;2.60;;;15.60;99.90;;;;;;4974694;28;20038;-88
2022/05/11 02:53:25;;;;;;;5.63;2.50;;;15.60;99.90;;;;;;4972522;28;20034;-87
2022/05/11 02:55:53;;;;;;;4.72;2.10;;;15.60;99.90;;;;;;4958651;28;20034;-87
2022/05/11 02:58:21;;;;;;;5.35;2.72;;;15.60;99.90;;;;;;4959800;28;20483;-87
2022/05/11 03:00:49;;;;;;;4.78;2.10;;;15.60;99.90;;;;;;4968976;28;20129;-87
2022/05/11 03:03:16;;;;;;;5.28;2.35;;;15.60;99.90;;;;;;4975935;28;20029;-86
2022/05/11 03:05:43;;;;;;;6.47;2.08;;;15.60;99.90;;;;;;4968674;28;20081;-87
2022/05/11 03:08:09;;;;;;;5.13;2.33;;;15.60;99.90;;;;;;4975750;28;20065;-87
2022/05/11 03:10:36;;;;;;;5.82;2.75;;;15.60;99.90;;;;;;4968042;28;20058;-87
2022/05/11 03:13:02;;;;;;;5.72;2.10;;;15.60;99.90;;;;;;4968745;28;20046;-87
2022/05/11 03:15:28;;;;;;;5.57;2.58;;;15.50;99.90;;;;;;4971702;28;20084;-85
2022/05/11 03:17:54;;;;;;;5.18;2.33;;;15.50;99.90;;;;;;4971838;28;20046;-88
2022/05/11 03:20:22;;;;;;;7.18;2.63;;;15.50;99.90;;;;;;4979762;28;20510;-87
2022/05/11 03:22:50;;;;;;;3.13;2.38;;;15.50;99.90;;;;;;4996183;28;20042;-86
2022/05/11 03:25:16;;;;;;;4.30;2.50;;;15.50;99.90;;;;;;4974797;28;20162;-87
2022/05/11 03:27:41;;;;;;;3.78;2.50;;;15.50;99.90;;;;;;4975026;28;20500;-87
2022/05/11 03:30:07;;;;;;;5.65;1.90;;;15.50;99.90;;;;;;4965519;28;20157;-87
2022/05/11 03:35:17;;;;;;;5.57;1.80;;;15.50;99.90;;;;;;4997739;28;20033;-86
2022/05/11 03:37:42;;;;;;;5.20;1.70;;;15.60;99.90;;;;;;4975816;28;20027;-87
2022/05/11 03:40:10;;;;;;;9.57;2.10;;;15.60;99.90;;;;;;4995940;28;20026;-87
2022/05/11 03:42:37;;;;;;;4.18;1.55;;;15.50;99.90;;;;;;4972527;28;20034;-87
2022/05/11 03:45:12;;;;;;;3.30;1.65;;;15.50;99.90;;;;;;4978633;28;20030;-87
2022/05/11 03:47:38;;;;;;;4.50;1.52;;;15.60;99.90;;;;;;4978783;28;20375;-87
2022/05/11 03:50:05;;;;;;;3.35;1.45;;;15.50;99.90;;;;;;4977785;28;20034;-87
2022/05/11 03:52:31;;;;;;;5.00;1.40;;;15.50;99.90;;;;;;4975741;28;20402;-88
2022/05/11 03:54:56;;;;;;;3.75;1.17;;;15.60;99.90;;;;;;4977498;28;20031;-87
2022/05/11 03:57:22;;;;;;;3.63;1.20;;;15.60;99.90;;;;;;4979081;28;20049;-87
2022/05/11 03:59:47;;;;;;;2.03;1.17;;;15.60;99.90;;;;;;4978149;28;20041;-87
2022/05/11 04:02:13;;;;;;;4.20;1.50;;;15.60;99.90;;;;;;4976238;28;20035;-87
2022/05/11 04:04:38;;;;;;;3.70;1.17;;;15.60;99.90;;;;;;4972842;28;20039;-87
2022/05/11 04:07:04;;;;;;;3.63;1.30;;;15.60;99.90;;;;;;4996375;28;20113;-87
2022/05/11 04:09:30;;;;;;;2.75;1.00;;;15.60;99.90;;;;;;4985161;28;20030;-87
2022/05/11 04:11:55;;;;;;;4.68;1.08;;;15.60;99.90;;;;;;4974066;28;20036;-87
2022/05/11 04:14:21;;;;;;;3.72;1.38;;;15.60;99.90;;;;;;4979075;28;20031;-87
2022/05/11 04:16:47;;;;;;;5.88;1.42;;;15.70;99.90;;;;;;4996275;28;20042;-87
2022/05/11 04:19:13;;;;;;;3.50;1.00;;;15.70;99.90;;;;;;4978083;28;20033;-87
2022/05/11 04:21:39;;;;;;;3.03;1.10;;;15.80;99.90;;;;;;4970257;28;20030;-87
2022/05/11 04:24:04;;;;;;;3.65;1.35;;;15.70;99.90;;;;;;4978165;28;20050;-87
2022/05/11 04:26:32;;;;;;;3.72;1.08;;;15.70;99.90;;;;;;4978943;28;20121;-88
2022/05/11 04:28:57;;;;;;;3.83;1.25;;;15.80;99.90;;;;;;4978657;28;20486;-87
2022/05/11 04:31:23;;;;;;;5.15;1.15;;;15.80;99.90;;;;;;4995061;28;20031;-87
2022/05/11 04:33:50;;;;;;;2.70;0.80;;;15.80;99.90;;;;;;4977090;28;20125;-87
2022/05/11 04:36:16;;;;;;;3.70;1.17;;;15.80;99.90;;;;;;4979176;28;20038;-87
2022/05/11 04:38:41;;;;;;;4.68;0.98;;;15.90;99.90;;;;;;4978569;28;20041;-87
2022/05/11 04:41:07;;;;;;;2.28;1.13;;;15.90;99.90;;;;;;4975636;28;20103;-88
2022/05/11 04:43:33;;;;;;;4.00;0.93;;;15.90;99.90;;;;;;4977447;28;20380;-87
2022/05/11 04:45:59;;;;;;;5.22;1.00;;;15.90;99.90;;;;;;4975423;28;20031;-88
2022/05/11 04:48:25;;;;;;;4.10;1.02;;;16.00;99.90;;;;;;4988976;28;20133;-87
2022/05/11 04:50:51;;;;;;;3.92;1.15;;;16.00;99.90;;;;;;4969306;28;20081;-88
2022/05/11 04:53:18;;;;;;;6.38;1.33;;;16.00;99.90;;;;;;4976427;28;20403;-88
2022/05/11 04:55:45;;;;;;;6.10;1.15;;;16.10;99.90;;;;;;4977113;28;20027;-88
2022/05/11 04:58:11;;;;;;;3.33;1.00;;;16.10;99.90;;;;;;4976721;28;20042;-88
2022/05/11 05:00:36;;;;;;;4.47;1.25;;;16.10;99.90;;;;;;4976106;28;20037;-88
2022/05/11 05:03:07;;;;;;;3.92;1.38;;;16.20;99.90;;;;;;4975911;28;20026;-87
2022/05/11 05:05:32;;;;;;;3.28;0.98;;;16.20;99.90;;;;;;4976613;28;20498;-87
2022/05/11 05:07:57;;;;;;;1.98;0.70;;;16.20;99.90;;;;;;4977378;28;20039;-88
2022/05/11 05:10:23;;;;;;;1.67;0.80;;;16.30;99.90;;;;;;4995638;28;20025;-87
2022/05/11 05:12:49;;;;;;;3.22;0.90;;;16.30;99.90;;;;;;4977481;28;20505;-87
2022/05/11 05:15:16;;;;;;;2.58;1.02;;;16.40;99.90;;;;;;4972159;28;20117;-87
2022/05/11 05:17:42;;;;;;;4.82;1.05;;;16.40;99.90;;;;;;4971156;28;20050;-86
2022/05/11 05:20:10;;;;;;;4.68;0.95;;;16.40;99.90;;;;;;4990683;28;20022;-86
2022/05/11 05:22:36;;;;;;;2.92;1.10;;;16.40;99.90;;;;;;4960103;28;20137;-87
2022/05/11 05:25:02;;;;;;;2.97;1.38;;;16.50;99.90;;;;;;4969331;28;20109;-88
2022/05/11 05:27:28;;;;;;;2.78;0.95;;;16.50;99.90;;;;;;4994588;28;20033;-86
2022/05/11 05:32:41;;;;;;;5.72;1.13;;;16.50;99.90;;;;;;4988953;28;20563;-86
2022/05/11 05:35:08;;;;;;;3.08;1.00;;;16.40;99.90;;;;;;4969295;28;20508;-87
2022/05/11 05:37:34;;;;;;;4.65;1.00;;;16.40;99.90;;;;;;4968636;28;20065;-87
2022/05/11 05:40:01;;;;;;;7.18;1.10;;;16.40;99.90;;;;;;4972418;28;20070;-87
2022/05/11 05:42:28;;;;;;;2.70;1.00;;;16.30;99.90;;;;;;4967015;28;20027;-87
2022/05/11 05:44:53;;;;;;;2.85;1.00;;;16.30;99.90;;;;;;4977114;28;20031;-86
2022/05/11 05:47:19;;;;;;;3.70;1.17;;;16.30;99.90;;;;;;4976744;28;20026;-87
2022/05/11 05:49:45;;;;;;;6.47;1.02;;;16.40;99.90;;;;;;4977214;28;20022;-87
2022/05/11 05:52:19;;;;;;;4.78;0.90;;;16.40;99.90;;;;;;4976798;28;20034;-86
2022/05/11 05:54:45;;;;;;;1.98;0.90;;;16.60;99.90;;;;;;4964065;28;20022;-87
2022/05/11 05:57:12;;;;;;;2.47;0.85;;;16.60;99.90;;;;;;4987510;28;20046;-86
2022/05/11 05:59:38;;;;;;;2.75;0.77;;;16.80;99.80;;;;;;4975955;28;20030;-87
2022/05/11 06:02:04;;;;;;;4.03;1.00;;;16.90;99.30;;;;;;4977182;28;20034;-86
2022/05/11 06:04:29;;;;;;;2.92;0.70;;;17.00;99.00;;;;;;4976630;28;20037;-86
2022/05/11 06:06:55;;;;;;;6.22;0.85;;;17.10;98.80;;;;;;4975421;28;20027;-86
2022/05/11 06:09:20;;;;;;;5.22;0.82;;;17.10;98.50;;;;;;4992979;28;20033;-86
2022/05/11 06:11:46;;;;;;;3.03;1.02;;;17.30;98.30;;;;;;4994461;28;20034;-86
2022/05/11 06:14:11;;;;;;;2.65;0.80;;;17.30;97.80;;;;;;4993840;28;20030;-86
2022/05/11 06:16:37;;;;;;;2.22;0.82;;;17.40;97.80;;;;;;4975764;28;20053;-86
2022/05/11 06:19:05;;;;;;;2.72;0.90;;;17.50;97.70;;;;;;4976342;28;20038;-86
2022/05/11 06:21:31;;;;;;;3.40;0.80;;;17.60;97.60;;;;;;4993028;28;20159;-87
2022/05/11 06:23:56;;;;;;;3.50;1.00;;;17.70;97.10;;;;;;4992482;28;20058;-86
2022/05/11 06:26:22;;;;;;;5.38;1.00;;;17.70;96.80;;;;;;4975700;28;20014;-85
2022/05/11 06:28:48;;;;;;;3.40;0.75;;;17.70;96.50;;;;;;4975744;28;20030;-86
2022/05/11 06:31:14;;;;;;;4.10;0.77;;;17.80;95.90;;;;;;4990773;28;20497;-85
2022/05/11 06:33:40;;;;;;;2.72;1.25;;;17.90;95.50;;;;;;4973092;28;20054;-87
2022/05/11 06:36:08;;;;;;;4.95;1.40;;;17.90;95.40;;;;;;4970410;28;20027;-86
2022/05/11 06:38:34;;;;;;;3.70;0.80;;;17.90;95.10;;;;;;4976027;28;20042;-86
2022/05/11 06:41:11;;;;;;;4.30;0.88;;;18.00;95.10;;;;;;4975895;28;20037;-85
2022/05/11 06:43:36;;;;;;;4.72;0.90;;;18.10;94.50;;;;;;4973592;28;20027;-86
2022/05/11 06:46:02;;;;;;;4.43;0.60;;;18.10;94.20;;;;;;4963850;28;20022;-86
2022/05/11 06:48:27;;;;;;;3.78;0.70;;;18.10;93.00;;;;;;4976356;28;20026;-86
2022/05/11 06:50:53;;;;;;;4.88;0.60;;;17.90;92.00;;;;;;4974321;28;20033;-86
2022/05/11 06:53:19;;;;;;;6.78;0.80;;;17.80;92.10;;;;;;4973570;28;20410;-86
2022/05/11 07:01:21;;;;;;;2.85;0.75;;;17.60;92.40;;;;;;4987683;28;20498;-85
2022/05/11 07:03:46;;;;;;;2.78;0.80;;;17.60;92.20;;;;;;4959203;28;20029;-87
2022/05/11 07:06:12;;;;;;;3.63;0.60;;;17.60;92.20;;;;;;4964952;28;20506;-86
2022/05/11 07:08:40;;;;;;;2.28;0.40;;;17.70;92.20;;;;;;4974885;28;20027;-86
2022/05/11 07:13:55;;;;;;;1.85;0.52;;;17.90;91.40;;;;;;4988989;28;20403;-86
2022/05/11 07:16:21;;;;;;;32.72;1.88;;;17.90;91.20;;;;;;4975551;28;20585;-85
2022/05/11 07:18:46;;;;;;;5.78;0.80;;;18.00;91.30;;;;;;4992492;28;20475;-86
2022/05/11 07:21:12;;;;;;;5.85;1.25;;;18.10;91.10;;;;;;4970778;28;20023;-86
2022/05/11 07:23:37;;;;;;;6.88;0.75;;;18.10;91.20;;;;;;4967449;28;20046;-86
2022/05/11 07:26:03;;;;;;;4.63;0.50;;;18.30;91.40;;;;;;4989479;28;20041;-85
2022/05/11 07:28:28;;;;;;;4.32;1.05;;;18.40;90.90;;;;;;4959304;28;20030;-85
2022/05/11 07:30:54;;;;;;;3.78;0.50;;;18.30;90.40;;;;;;4974878;28;20430;-85
2022/05/11 07:33:19;;;;;;;4.35;1.20;;;18.30;89.30;;;;;;4975346;28;20441;-85
2022/05/11 07:35:45;;;;;;;7.20;0.82;;;18.20;89.40;;;;;;4972840;28;20034;-85
2022/05/11 07:38:17;;;;;;;4.80;0.50;;;18.10;89.00;;;;;;4992651;28;20069;-85
2022/05/11 07:40:44;;;;;;;3.45;0.57;;;18.30;88.60;;;;;;4972926;28;20034;-85
2022/05/11 07:43:10;;;;;;;6.40;0.50;;;18.40;87.80;;;;;;4964187;28;20038;-84
2022/05/11 07:45:37;;;;;;;9.63;0.70;;;18.60;86.10;;;;;;4974778;28;20034;-85
2022/05/11 07:48:03;;;;;;;5.38;0.60;;;18.60;85.90;;;;;;4964832;28;20023;-85
2022/05/11 07:50:30;;;;;;;3.17;0.40;;;18.70;83.80;;;;;;4963620;28;20026;-85
2022/05/11 07:52:56;;;;;;;2.92;0.30;;;18.70;82.90;;;;;;4971998;28;20117;-85
2022/05/11 07:55:25;;;;;;;4.30;0.50;;;18.70;83.20;;;;;;4970113;28;20101;-84
2022/05/11 08:00:35;;;;;;;2.50;0.40;;;18.70;82.10;;;;;;4985378;28;20046;-86
2022/05/11 08:03:00;;;;;;;3.03;0.32;;;18.60;81.60;;;;;;4969922;28;20505;-84
2022/05/11 08:05:26;;;;;;;4.07;0.30;;;18.60;81.50;;;;;;4975175;28;20026;-85
2022/05/11 08:07:54;;;;;;;4.35;0.30;;;18.70;81.30;;;;;;4971721;28;20014;-85
2022/05/11 08:10:24;;;;;;;7.93;1.05;;;18.80;80.70;;;;;;4978841;28;20057;-84
2022/05/11 08:12:52;;;;;;;3.40;0.70;;;19.00;80.80;;;;;;4966946;28;20022;-85
2022/05/11 08:15:19;;;;;;;3.05;0.82;;;19.10;79.90;;;;;;4972759;28;20398;-85
2022/05/11 08:17:46;;;;;;;5.57;0.50;;;19.10;79.00;;;;;;4970065;28;20049;-85
2022/05/11 08:20:23;;;;;;;2.03;0.25;;;19.10;78.80;;;;;;4978446;28;20027;-85
2022/05/11 08:22:51;;;;;;;3.58;0.45;;;19.10;77.80;;;;;;4992718;28;20058;-85
2022/05/11 08:25:20;;;;;;;2.58;0.30;;;19.10;77.70;;;;;;4983808;28;20073;-85
2022/05/11 08:27:46;;;;;;;4.35;0.30;;;19.10;77.80;;;;;;4979097;28;20110;-85
2022/05/11 08:35:43;;;;;;;4.18;0.50;;;19.30;77.60;;;;;;4993783;28;20181;-85
2022/05/11 08:38:10;;;;;;;2.58;0.30;;;19.30;77.90;;;;;;4966128;28;20090;-85
2022/05/11 08:40:36;;;;;;;4.43;0.70;;;19.40;78.10;;;;;;4976263;28;20030;-85
2022/05/11 08:43:02;;;;;;;4.90;0.50;;;19.50;78.60;;;;;;4972856;28;20027;-85
2022/05/11 08:45:37;;;;;;;3.65;0.40;;;19.60;77.80;;;;;;4978195;28;20142;-85
2022/05/11 08:48:16;;;;;;;5.93;0.52;;;19.50;77.40;;;;;;4977757;28;20379;-85
2022/05/11 08:50:43;;;;;;;6.43;0.50;;;19.50;78.00;;;;;;4978252;28;20033;-85
2022/05/11 08:53:34;;;;;;;4.30;0.40;;;19.40;77.60;;;;;;4978115;28;20061;-85
2022/05/11 08:56:06;;;;;;;4.22;0.35;;;19.30;77.70;;;;;;4969541;28;20030;-85
2022/05/11 08:58:41;;;;;;;2.40;0.40;;;19.30;78.80;;;;;;4963018;28;20041;-85
2022/05/11 09:01:15;;;;;;;2.05;0.30;;;19.30;78.20;;;;;;4978063;28;20479;-85
2022/05/11 09:03:44;;;;;;;3.55;0.47;;;19.20;78.80;;;;;;4977080;28;20494;-85
2022/05/11 09:06:20;;;;;;;3.42;0.60;;;19.20;79.30;;;;;;4978117;28;20034;-85
2022/05/11 09:08:46;;;;;;;6.43;0.55;;;19.40;79.50;;;;;;4978349;28;20566;-85
2022/05/11 09:11:32;;;;;;;5.10;0.70;;;19.40;78.80;;;;;;4977752;28;20118;-85
2022/05/11 09:14:00;;;;;;;4.60;0.63;;;19.50;79.40;;;;;;4973538;28;20550;-85
2022/05/11 09:16:35;;;;;;;4.05;0.60;;;19.50;79.60;;;;;;4977687;28;20033;-85
2022/05/11 09:19:19;;;;;;;7.13;0.60;;;19.70;79.50;;;;;;4974583;28;20035;-86
2022/05/11 09:21:54;;;;;;;5.05;0.70;;;19.80;78.90;;;;;;4961686;28;20502;-86
2022/05/11 09:24:30;;;;;;;4.47;0.95;;;19.90;78.60;;;;;;4968816;28;20054;-85
2022/05/11 09:27:10;;;;;;;2.33;0.50;;;20.00;78.60;;;;;;4977290;28;20598;-85
2022/05/11 09:29:45;;;;;;;5.18;0.77;;;20.00;78.70;;;;;;4975316;28;20113;-85
2022/05/11 09:32:45;;;;;;;4.43;0.55;;;20.10;79.20;;;;;;4976267;28;20296;-85
2022/05/11 09:35:34;;;;;;;2.97;0.57;;;20.10;78.40;;;;;;4988436;28;20537;-85
2022/05/11 09:38:29;;;;;;;6.53;0.73;;;20.20;78.50;;;;;;4974876;28;20034;-85
2022/05/11 09:41:11;;;;;;;1.90;0.60;;;20.20;77.30;;;;;;4962440;28;20043;-85
2022/05/11 09:43:43;;;;;;;3.63;1.02;;;20.20;76.80;;;;;;4991268;28;20030;-85
2022/05/11 09:46:19;;;;;;;4.03;0.60;;;20.00;77.40;;;;;;4977120;28;20034;-86
2022/05/11 09:49:01;;;;;;;3.22;0.70;;;20.00;78.00;;;;;;4975472;28;20042;-86
2022/05/11 09:51:35;;;;;;;6.82;0.70;;;20.10;78.10;;;;;;4974558;28;20620;-86
2022/05/11 09:54:33;;;;;;;5.97;1.42;;;20.20;78.90;;;;;;4973183;28;20035;-87
2022/05/11 09:57:23;;;;;;;4.88;0.70;;;20.40;78.20;;;;;;4966052;28;20019;-87
2022/05/11 09:59:52;;;;;;;7.13;0.75;;;20.50;77.60;;;;;;4973399;28;20138;-86
2022/05/11 10:02:32;;;;;;;5.60;0.85;;;20.50;77.50;;;;;;4973727;28;20077;-84
2022/05/11 10:05:06;;;;;;;3.55;0.90;;;20.60;77.60;;;;;;4972415;28;20030;-84
2022/05/11 10:07:57;;;;;;;4.35;0.93;;;20.60;76.50;;;;;;4972591;28;20041;-85
2022/05/11 10:10:28;;;;;;;3.30;0.70;;;20.70;76.80;;;;;;4972212;28;20027;-86
2022/05/11 10:13:16;;;;;;;4.70;0.80;;;20.70;77.70;;;;;;4976305;28;20393;-86
2022/05/11 10:24:31;;;;;;;7.70;1.10;;;21.20;75.70;;;;;;4992964;28;20453;-85
2022/05/11 10:27:27;;;;;;;4.88;0.80;;;21.30;76.20;;;;;;4913280;29;20032;-85
2022/05/11 10:30:18;;;;;;;4.15;0.95;;;21.50;75.30;;;;;;4966078;28;20096;-85
2022/05/11 10:32:55;;;;;;;3.35;0.60;;;21.60;74.10;;;;;;4975258;28;20027;-85
2022/05/11 10:35:33;;;;;;;7.63;1.45;;;21.70;74.60;;;;;;4974932;28;20033;-85
2022/05/11 10:38:01;;;;;;;6.60;1.17;;;21.70;73.40;;;;;;4975361;28;20387;-86
2022/05/11 10:40:46;;;;;;;7.60;1.10;;;21.80;73.30;;;;;;4964772;28;20033;-86
2022/05/11 10:43:40;;;;;;;10.43;1.15;;;22.00;73.30;;;;;;4975088;28;20031;-86
2022/05/11 10:46:24;;;;;;;7.63;1.48;;;21.90;72.80;;;;;;4968634;28;20049;-86
2022/05/11 10:49:29;;;;;;;7.03;1.38;;;22.00;72.90;;;;;;4989450;28;20038;-86
2022/05/11 10:52:07;;;;;;;7.90;1.50;;;22.00;72.80;;;;;;4963156;28;20027;-86
2022/05/11 10:55:10;;;;;;;6.30;0.80;;;22.00;72.60;;;;;;4969957;28;20089;-85
2022/05/11 10:58:01;;;;;;;4.82;0.82;;;21.90;70.70;;;;;;4974332;28;20022;-86
2022/05/11 11:00:30;;;;;;;5.88;1.52;;;22.00;71.70;;;;;;4984717;28;20034;-86
2022/05/11 11:03:23;;;;;;;10.35;1.40;;;22.00;71.90;;;;;;4958567;28;20103;-84
2022/05/11 11:09:00;;;;;;;9.65;1.75;;;22.20;71.40;;;;;;4987506;28;20112;-86
2022/05/11 11:11:43;;;;;;;9.73;1.58;;;22.60;71.40;;;;;;4976098;28;20185;-85
2022/05/11 11:14:11;;;;;;;6.00;1.45;;;22.70;71.50;;;;;;4991974;28;20034;-86
2022/05/11 11:16:39;;;;;;;4.47;1.48;;;22.80;70.80;;;;;;4976032;28;20026;-86
2022/05/11 11:19:07;;;;;;;9.05;1.75;;;22.80;70.80;;;;;;4974719;28;20441;-86
2022/05/11 11:21:33;;;;;;;2.28;0.70;;;22.80;70.50;;;;;;4975999;28;20483;-86
2022/05/11 11:24:22;;;;;;;3.38;0.60;;;22.70;69.70;;;;;;4972461;28;20136;-84
2022/05/11 11:26:49;;;;;;;9.77;1.55;;;22.70;69.00;;;;;;4971684;28;20034;-84
2022/05/11 11:29:20;;;;;;;5.32;0.50;;;22.70;68.70;;;;;;4974662;28;20521;-84
2022/05/11 11:32:02;;;;;;;3.67;0.90;;;22.80;68.30;;;;;;4957235;28;20426;-84
2022/05/11 11:34:33;;;;;;;5.43;0.90;;;22.90;68.20;;;;;;4988638;28;20050;-83
2022/05/11 11:37:19;;;;;;;6.07;2.20;;;23.20;69.00;;;;;;4974637;28;20036;-84
2022/05/11 11:40:13;;;;;;;7.25;1.45;;;23.40;67.60;;;;;;4976530;28;20041;-82
2022/05/11 11:42:43;;;;;;;4.30;0.80;;;23.30;66.40;;;;;;4966660;28;20031;-83
2022/05/11 11:45:32;;;;;;;4.25;0.50;;;23.20;65.80;;;;;;4977398;28;20475;-83
2022/05/11 11:48:03;;;;;;;4.00;1.00;;;23.20;65.20;;;;;;4975403;28;20034;-80
2022/05/11 11:50:51;;;;;;;5.25;1.23;;;23.40;65.50;;;;;;4994524;28;20097;-85
2022/05/11 11:53:40;;;;;;;6.90;1.10;;;23.60;65.10;;;;;;4979117;28;20034;-85
2022/05/11 11:56:35;;;;;;;5.22;1.10;;;23.70;64.80;;;;;;4977821;28;20027;-85
2022/05/11 11:59:09;;;;;;;5.18;1.33;;;23.70;63.40;;;;;;4978915;28;20520;-85
2022/05/11 12:01:57;;;;;;;8.73;0.85;;;23.60;63.00;;;;;;4978840;28;20383;-85
2022/05/11 12:04:30;;;;;;;4.40;0.85;;;23.50;63.40;;;;;;4979153;28;20023;-85
2022/05/11 12:15:32;;;;;;;3.40;0.90;;;23.20;62.10;;;;;;4989462;28;20073;-85
2022/05/11 12:17:58;;;;;;;4.13;0.98;;;23.00;62.50;;;;;;4978342;28;20042;-85
2022/05/11 12:20:24;;;;;;;4.50;1.08;;;23.00;63.20;;;;;;4973733;28;20026;-85
2022/05/11 12:22:57;;;;;;;7.28;1.67;;;23.00;63.50;;;;;;4974800;28;20046;-85
2022/05/11 12:25:33;;;;;;;4.05;1.15;;;23.10;63.70;;;;;;4974750;28;20054;-85
2022/05/11 12:28:02;;;;;;;5.38;1.23;;;23.20;63.60;;;;;;4978588;28;20026;-85
2022/05/11 12:30:32;;;;;;;5.60;0.95;;;23.20;62.50;;;;;;4964901;28;20092;-84
2022/05/11 12:33:05;;;;;;;4.25;1.08;;;23.20;62.90;;;;;;4978032;28;20034;-85
2022/05/11 12:35:34;;;;;;;4.22;1.00;;;23.30;63.10;;;;;;4978111;28;20057;-85
2022/05/11 12:38:05;;;;;;;5.55;0.90;;;23.40;63.20;;;;;;4989674;28;20395;-84
2022/05/11 12:40:40;;;;;;;6.63;0.90;;;23.50;63.10;;;;;;4976450;28;20026;-85
2022/05/11 12:43:17;;;;;;;2.20;0.68;;;23.60;63.20;;;;;;4994148;28;20038;-85
2022/05/11 12:45:46;;;;;;;4.10;0.85;;;23.60;61.50;;;;;;4978071;28;20109;-84
2022/05/11 12:48:34;;;;;;;7.68;1.27;;;23.60;61.30;;;;;;4995170;28;20026;-84
2022/05/11 12:51:08;;;;;;;29.48;2.08;;;23.60;62.00;;;;;;4992006;28;20402;-84
2022/05/11 12:53:37;;;;;;;5.10;1.35;;;23.60;62.40;;;;;;4993873;28;20093;-85
2022/05/11 12:56:12;;;;;;;5.00;0.80;;;23.60;62.20;;;;;;4971934;28;20022;-85
2022/05/11 12:58:44;;;;;;;7.40;1.08;;;23.70;62.10;;;;;;4977959;28;20092;-85
2022/05/11 13:01:12;;;;;;;3.72;0.60;;;23.70;60.30;;;;;;4977358;28;20035;-83
2022/05/11 13:03:38;;;;;;;4.88;0.70;;;23.70;59.90;;;;;;4975697;28;20030;-84
2022/05/11 13:06:22;;;;;;;7.50;0.77;;;23.70;59.20;;;;;;4974479;28;20097;-84
2022/05/11 13:08:50;;;;;;;5.47;0.63;;;23.70;59.00;;;;;;4970170;28;20027;-83
2022/05/11 13:11:20;;;;;;;3.92;0.60;;;23.70;58.60;;;;;;4974959;28;20026;-83
2022/05/11 13:13:48;;;;;;;4.60;0.60;;;23.70;59.10;;;;;;4971350;28;20027;-84
2022/05/11 13:16:32;;;;;;;3.92;0.60;;;23.80;59.40;;;;;;4990952;28;20026;-84
2022/05/11 13:19:06;;;;;;;5.68;0.70;;;23.80;59.50;;;;;;4971078;28;20558;-84
2022/05/11 13:21:37;;;;;;;5.15;0.98;;;23.90;59.10;;;;;;4976279;28;20034;-84
2022/05/11 13:24:06;;;;;;;4.60;1.00;;;23.80;59.10;;;;;;4975634;28;20057;-84
2022/05/11 13:26:37;;;;;;;3.53;0.70;;;24.00;59.70;;;;;;4975155;28;20023;-84
2022/05/11 13:29:23;;;;;;;2.83;0.60;;;24.20;59.30;;;;;;4993802;28;20032;-84
2022/05/11 13:32:05;;;;;;;4.47;0.57;;;24.30;58.00;;;;;;4994567;28;20479;-84
2022/05/11 13:34:34;;;;;;;4.15;0.60;;;24.30;57.80;;;;;;4977562;28;20057;-84
2022/05/11 13:37:01;;;;;;;3.40;0.60;;;24.20;57.90;;;;;;4966109;28;20133;-84
2022/05/11 13:39:31;;;;;;;2.65;0.47;;;24.10;58.80;;;;;;4974085;28;20042;-84
2022/05/11 13:42:04;;;;;;;4.50;0.65;;;24.00;58.40;;;;;;4976926;28;20027;-84
2022/05/11 13:44:40;;;;;;;6.63;0.60;;;24.00;58.60;;;;;;4994347;28;20026;-85
2022/05/11 13:50:30;;;;;;;5.03;0.80;;;24.20;59.80;;;;;;4983081;28;20161;-85